sensor_id;sensor_type;location;lat;lon;timestamp;temperature;humidity
5415;DHT22;2730;51.512;7.504;2022-07-04T05:01:40;15.60;99.90
5415;DHT22;2730;51.512;7.504;2022-07-04T05:04:07;15.60;99.90
5415;DHT22;2730;51.512;7.504;2022-07-04T05:06:34;15.70;99.90
5415;DHT22;2730;51.512;7.504;2022-07-04T05:09:01;15.70;99.90
5415;DHT22;2730;51.512;7.504;2022-07-04T05:11:28;15.80;99.90
5415;DHT22;2730;51.512;7.504;2022-07-04T05:13:55;15.80;99.90
5415;DHT22;2730;51.512;7.504;2022-07-04T05:16:22;15.90;99.90
5415;DHT22;2730;51.512;7.504;2022-07-04T05:18:50;15.90;99.90
5415;DHT22;2730;51.512;7.504;2022-07-04T05:21:17;16.00;99.90
5415;DHT22;2730;51.512;7.504;2022-07-04T05:23:44;16.20;99.90
5415;DHT22;2730;51.512;7.504;2022-07-04T05:26:10;16.40;99.90
5415;DHT22;2730;51.512;7.504;2022-07-04T05:28:37;17.00;99.90
5415;DHT22;2730;51.512;7.504;2022-07-04T05:31:04;18.00;99.90
5415;DHT22;2730;51.512;7.504;2022-07-04T05:33:31;18.90;99.90
5415;DHT22;2730;51.512;7.504;2022-07-04T05:35:59;19.50;99.90
5415;DHT22;2730;51.512;7.504;2022-07-04T05:38:26;20.20;99.90
5415;DHT22;2730;51.512;7.504;2022-07-04T05:40:53;21.30;99.90
5415;DHT22;2730;51.512;7.504;2022-07-04T05:43:20;22.20;99.90
5415;DHT22;2730;51.512;7.504;2022-07-04T05:45:47;22.70;99.90
5415;DHT22;2730;51.512;7.504;2022-07-04T05:48:14;22.90;99.90
5415;DHT22;2730;51.512;7.504;2022-07-04T05:50:41;23.50;99.90
5415;DHT22;2730;51.512;7.504;2022-07-04T05:53:09;23.50;99.90
5415;DHT22;2730;51.512;7.504;2022-07-04T05:55:36;23.30;99.90
5415;DHT22;2730;51.512;7.504;2022-07-04T05:58:03;23.10;99.90
5415;DHT22;2730;51.512;7.504;2022-07-04T06:00:30;22.00;99.90
5415;DHT22;2730;51.512;7.504;2022-07-04T06:02:57;21.20;99.90
5415;DHT22;2730;51.512;7.504;2022-07-04T06:05:24;20.80;99.90
5415;DHT22;2730;51.512;7.504;2022-07-04T06:07:51;20.40;99.90
5415;DHT22;2730;51.512;7.504;2022-07-04T06:10:19;20.20;99.90
5415;DHT22;2730;51.512;7.504;2022-07-04T06:12:46;20.70;99.90
5415;DHT22;2730;51.512;7.504;2022-07-04T06:15:13;22.30;99.90
5415;DHT22;2730;51.512;7.504;2022-07-04T06:17:41;23.70;99.90
5415;DHT22;2730;51.512;7.504;2022-07-04T06:20:09;24.60;99.90
5415;DHT22;2730;51.512;7.504;2022-07-04T06:22:40;25.40;99.90
5415;DHT22;2730;51.512;7.504;2022-07-04T06:25:10;25.70;99.90
5415;DHT22;2730;51.512;7.504;2022-07-04T06:27:38;26.50;99.40
5415;DHT22;2730;51.512;7.504;2022-07-04T06:30:06;27.40;98.10
5415;DHT22;2730;51.512;7.504;2022-07-04T06:32:41;27.70;96.50
5415;DHT22;2730;51.512;7.504;2022-07-04T06:35:08;27.90;95.00
5415;DHT22;2730;51.512;7.504;2022-07-04T06:37:53;27.80;94.20
5415;DHT22;2730;51.512;7.504;2022-07-04T06:40:20;28.50;93.60
5415;DHT22;2730;51.512;7.504;2022-07-04T06:42:49;28.50;92.70
5415;DHT22;2730;51.512;7.504;2022-07-04T06:45:16;28.90;91.90
5415;DHT22;2730;51.512;7.504;2022-07-04T06:47:43;28.80;91.70
5415;DHT22;2730;51.512;7.504;2022-07-04T06:50:11;28.80;91.80
5415;DHT22;2730;51.512;7.504;2022-07-04T06:52:38;28.20;91.90
5415;DHT22;2730;51.512;7.504;2022-07-04T06:55:06;28.20;92.30
5415;DHT22;2730;51.512;7.504;2022-07-04T06:57:32;28.80;91.30
5415;DHT22;2730;51.512;7.504;2022-07-04T07:00:01;29.00;90.30
5415;DHT22;2730;51.512;7.504;2022-07-04T07:02:28;28.80;90.60
5415;DHT22;2730;51.512;7.504;2022-07-04T07:04:56;29.00;89.90
5415;DHT22;2730;51.512;7.504;2022-07-04T07:07:23;29.10;88.70
5415;DHT22;2730;51.512;7.504;2022-07-04T07:09:51;29.20;88.70
5415;DHT22;2730;51.512;7.504;2022-07-04T07:12:18;29.60;87.30
5415;DHT22;2730;51.512;7.504;2022-07-04T07:14:45;29.50;86.70
5415;DHT22;2730;51.512;7.504;2022-07-04T07:17:13;29.20;85.50
5415;DHT22;2730;51.512;7.504;2022-07-04T07:19:41;29.40;84.10
5415;DHT22;2730;51.512;7.504;2022-07-04T07:22:08;29.70;83.90
5415;DHT22;2730;51.512;7.504;2022-07-04T07:24:35;30.20;82.60
5415;DHT22;2730;51.512;7.504;2022-07-04T07:27:02;30.60;80.90
5415;DHT22;2730;51.512;7.504;2022-07-04T07:29:29;30.40;81.00
5415;DHT22;2730;51.512;7.504;2022-07-04T07:31:56;30.80;78.70
5415;DHT22;2730;51.512;7.504;2022-07-04T07:34:25;30.50;77.80
5415;DHT22;2730;51.512;7.504;2022-07-04T07:36:52;30.70;77.90
5415;DHT22;2730;51.512;7.504;2022-07-04T07:39:19;30.50;76.70
5415;DHT22;2730;51.512;7.504;2022-07-04T07:41:46;30.70;76.80
5415;DHT22;2730;51.512;7.504;2022-07-04T07:44:13;30.30;77.00
5415;DHT22;2730;51.512;7.504;2022-07-04T07:46:40;29.50;78.90
5415;DHT22;2730;51.512;7.504;2022-07-04T07:49:07;29.60;77.80
5415;DHT22;2730;51.512;7.504;2022-07-04T07:51:35;29.60;78.20
5415;DHT22;2730;51.512;7.504;2022-07-04T07:54:02;29.90;76.70
5415;DHT22;2730;51.512;7.504;2022-07-04T07:56:29;30.20;76.50
5415;DHT22;2730;51.512;7.504;2022-07-04T07:58:56;29.90;75.90
5415;DHT22;2730;51.512;7.504;2022-07-04T08:01:23;28.80;77.30
5415;DHT22;2730;51.512;7.504;2022-07-04T08:03:50;29.20;77.50
5415;DHT22;2730;51.512;7.504;2022-07-04T08:06:37;29.80;77.20
5415;DHT22;2730;51.512;7.504;2022-07-04T08:09:03;30.60;73.10
5415;DHT22;2730;51.512;7.504;2022-07-04T08:11:31;29.20;74.70
5415;DHT22;2730;51.512;7.504;2022-07-04T08:13:57;29.10;74.40
5415;DHT22;2730;51.512;7.504;2022-07-04T08:16:24;29.40;75.10
5415;DHT22;2730;51.512;7.504;2022-07-04T08:18:51;30.20;74.90
5415;DHT22;2730;51.512;7.504;2022-07-04T08:21:18;30.10;74.10
5415;DHT22;2730;51.512;7.504;2022-07-04T08:23:46;30.30;74.10
5415;DHT22;2730;51.512;7.504;2022-07-04T08:26:13;30.50;73.00
5415;DHT22;2730;51.512;7.504;2022-07-04T08:28:40;30.30;74.20
5415;DHT22;2730;51.512;7.504;2022-07-04T08:31:07;30.50;71.10
5415;DHT22;2730;51.512;7.504;2022-07-04T08:33:35;28.60;73.00
5415;DHT22;2730;51.512;7.504;2022-07-04T08:36:02;27.30;76.30
5415;DHT22;2730;51.512;7.504;2022-07-04T08:38:29;28.40;76.40
5415;DHT22;2730;51.512;7.504;2022-07-04T08:40:58;29.40;75.20
5415;DHT22;2730;51.512;7.504;2022-07-04T08:43:26;29.70;73.70
5415;DHT22;2730;51.512;7.504;2022-07-04T08:45:54;30.60;71.60
5415;DHT22;2730;51.512;7.504;2022-07-04T08:48:24;30.60;71.10
5415;DHT22;2730;51.512;7.504;2022-07-04T08:50:55;30.00;71.80
5415;DHT22;2730;51.512;7.504;2022-07-04T08:53:27;30.20;73.30
5415;DHT22;2730;51.512;7.504;2022-07-04T08:55:56;29.00;71.80
5415;DHT22;2730;51.512;7.504;2022-07-04T08:58:42;27.80;73.60
5415;DHT22;2730;51.512;7.504;2022-07-04T09:01:11;27.80;73.70
5415;DHT22;2730;51.512;7.504;2022-07-04T09:03:41;26.90;74.40
5415;DHT22;2730;51.512;7.504;2022-07-04T09:06:09;25.60;77.60
5415;DHT22;2730;51.512;7.504;2022-07-04T09:08:37;26.80;76.40
5415;DHT22;2730;51.512;7.504;2022-07-04T09:11:06;27.10;76.10
5415;DHT22;2730;51.512;7.504;2022-07-04T09:13:33;27.30;76.80
5415;DHT22;2730;51.512;7.504;2022-07-04T09:16:00;27.90;75.30
5415;DHT22;2730;51.512;7.504;2022-07-04T09:18:29;27.90;74.50
5415;DHT22;2730;51.512;7.504;2022-07-04T09:20:57;28.40;74.80
5415;DHT22;2730;51.512;7.504;2022-07-04T09:23:27;29.20;73.20
5415;DHT22;2730;51.512;7.504;2022-07-04T09:26:11;30.20;71.40
5415;DHT22;2730;51.512;7.504;2022-07-04T09:28:39;30.90;69.80
5415;DHT22;2730;51.512;7.504;2022-07-04T09:31:14;31.20;69.80
5415;DHT22;2730;51.512;7.504;2022-07-04T09:33:53;31.00;69.40
5415;DHT22;2730;51.512;7.504;2022-07-04T09:36:22;30.60;69.80
5415;DHT22;2730;51.512;7.504;2022-07-04T09:39:04;30.50;70.60
5415;DHT22;2730;51.512;7.504;2022-07-04T09:41:50;30.50;68.70
5415;DHT22;2730;51.512;7.504;2022-07-04T09:44:17;30.30;68.60
5415;DHT22;2730;51.512;7.504;2022-07-04T09:46:44;30.00;69.20
5415;DHT22;2730;51.512;7.504;2022-07-04T09:49:11;30.20;68.40
5415;DHT22;2730;51.512;7.504;2022-07-04T09:51:40;29.60;66.20
5415;DHT22;2730;51.512;7.504;2022-07-04T09:54:18;29.60;68.10
5415;DHT22;2730;51.512;7.504;2022-07-04T09:56:49;30.20;68.00
5415;DHT22;2730;51.512;7.504;2022-07-04T09:59:17;30.90;67.20
5415;DHT22;2730;51.512;7.504;2022-07-04T10:01:43;31.10;66.60
5415;DHT22;2730;51.512;7.504;2022-07-04T10:04:10;31.20;66.00
5415;DHT22;2730;51.512;7.504;2022-07-04T10:06:39;31.20;66.30
5415;DHT22;2730;51.512;7.504;2022-07-04T10:09:12;30.90;66.00
5415;DHT22;2730;51.512;7.504;2022-07-04T10:11:40;30.10;66.40
5415;DHT22;2730;51.512;7.504;2022-07-04T10:14:10;31.00;65.70
5415;DHT22;2730;51.512;7.504;2022-07-04T10:16:37;31.10;65.80
5415;DHT22;2730;51.512;7.504;2022-07-04T10:19:05;31.40;64.90
5415;DHT22;2730;51.512;7.504;2022-07-04T10:21:32;31.90;63.10
5415;DHT22;2730;51.512;7.504;2022-07-04T10:23:59;30.80;64.30
5415;DHT22;2730;51.512;7.504;2022-07-04T10:26:29;30.70;64.60
5415;DHT22;2730;51.512;7.504;2022-07-04T10:28:56;31.40;64.00
5415;DHT22;2730;51.512;7.504;2022-07-04T10:31:26;31.90;62.60
5415;DHT22;2730;51.512;7.504;2022-07-04T10:33:55;31.70;63.40
5415;DHT22;2730;51.512;7.504;2022-07-04T10:36:24;31.20;63.10
5415;DHT22;2730;51.512;7.504;2022-07-04T10:38:55;31.90;62.50
5415;DHT22;2730;51.512;7.504;2022-07-04T10:41:24;31.50;62.10
5415;DHT22;2730;51.512;7.504;2022-07-04T10:43:56;31.30;62.30
5415;DHT22;2730;51.512;7.504;2022-07-04T10:46:43;31.30;63.00
5415;DHT22;2730;51.512;7.504;2022-07-04T10:49:25;30.90;64.00
5415;DHT22;2730;51.512;7.504;2022-07-04T10:51:54;29.80;64.00
5415;DHT22;2730;51.512;7.504;2022-07-04T10:54:27;30.00;64.20
5415;DHT22;2730;51.512;7.504;2022-07-04T10:56:56;29.30;65.70
5415;DHT22;2730;51.512;7.504;2022-07-04T10:59:25;28.40;66.20
5415;DHT22;2730;51.512;7.504;2022-07-04T11:02:21;27.50;67.50
5415;DHT22;2730;51.512;7.504;2022-07-04T11:04:52;27.30;68.40
5415;DHT22;2730;51.512;7.504;2022-07-04T11:07:20;27.30;68.30
5415;DHT22;2730;51.512;7.504;2022-07-04T11:10:17;26.50;68.60
5415;DHT22;2730;51.512;7.504;2022-07-04T11:13:07;25.80;70.00
5415;DHT22;2730;51.512;7.504;2022-07-04T11:18:40;24.50;73.00
5415;DHT22;2730;51.512;7.504;2022-07-04T11:21:19;24.50;71.90
5415;DHT22;2730;51.512;7.504;2022-07-04T11:23:50;24.60;73.70
5415;DHT22;2730;51.512;7.504;2022-07-04T11:26:19;25.10;73.40
5415;DHT22;2730;51.512;7.504;2022-07-04T11:28:46;25.60;72.20
5415;DHT22;2730;51.512;7.504;2022-07-04T11:31:13;26.20;69.90
5415;DHT22;2730;51.512;7.504;2022-07-04T11:33:42;26.20;69.10
5415;DHT22;2730;51.512;7.504;2022-07-04T11:36:11;26.30;69.00
5415;DHT22;2730;51.512;7.504;2022-07-04T11:38:47;26.30;70.50
5415;DHT22;2730;51.512;7.504;2022-07-04T11:41:14;26.30;68.70
5415;DHT22;2730;51.512;7.504;2022-07-04T11:44:03;26.30;70.00
5415;DHT22;2730;51.512;7.504;2022-07-04T11:46:47;26.00;68.70
5415;DHT22;2730;51.512;7.504;2022-07-04T11:49:16;26.20;69.40
5415;DHT22;2730;51.512;7.504;2022-07-04T11:51:44;25.90;68.60
5415;DHT22;2730;51.512;7.504;2022-07-04T11:54:11;25.70;69.10
5415;DHT22;2730;51.512;7.504;2022-07-04T11:56:37;25.60;68.50
5415;DHT22;2730;51.512;7.504;2022-07-04T11:59:12;25.90;69.60
5415;DHT22;2730;51.512;7.504;2022-07-04T12:01:39;26.30;67.80
5415;DHT22;2730;51.512;7.504;2022-07-04T12:04:18;26.40;66.70
5415;DHT22;2730;51.512;7.504;2022-07-04T12:06:47;26.60;65.60
5415;DHT22;2730;51.512;7.504;2022-07-04T12:09:15;26.70;67.30
5415;DHT22;2730;51.512;7.504;2022-07-04T12:11:57;26.50;66.40
5415;DHT22;2730;51.512;7.504;2022-07-04T12:14:24;26.50;67.20
5415;DHT22;2730;51.512;7.504;2022-07-04T12:17:13;26.50;67.40
5415;DHT22;2730;51.512;7.504;2022-07-04T12:19:51;26.40;66.80
5415;DHT22;2730;51.512;7.504;2022-07-04T12:22:30;26.40;68.10
5415;DHT22;2730;51.512;7.504;2022-07-04T12:24:58;26.20;68.00
5415;DHT22;2730;51.512;7.504;2022-07-04T12:27:25;26.20;69.00
5415;DHT22;2730;51.512;7.504;2022-07-04T12:29:53;26.10;67.90
5415;DHT22;2730;51.512;7.504;2022-07-04T12:32:21;25.90;68.10
5415;DHT22;2730;51.512;7.504;2022-07-04T12:34:48;25.50;69.00
5415;DHT22;2730;51.512;7.504;2022-07-04T12:37:17;25.70;70.30
5415;DHT22;2730;51.512;7.504;2022-07-04T12:39:44;26.00;70.10
5415;DHT22;2730;51.512;7.504;2022-07-04T12:42:14;26.10;69.40
5415;DHT22;2730;51.512;7.504;2022-07-04T12:44:42;26.20;68.70
5415;DHT22;2730;51.512;7.504;2022-07-04T12:47:11;26.20;69.20
5415;DHT22;2730;51.512;7.504;2022-07-04T12:49:42;26.20;69.00
5415;DHT22;2730;51.512;7.504;2022-07-04T12:52:11;25.90;67.90
5415;DHT22;2730;51.512;7.504;2022-07-04T12:54:39;26.10;69.40
5415;DHT22;2730;51.512;7.504;2022-07-04T12:57:09;26.20;69.60
5415;DHT22;2730;51.512;7.504;2022-07-04T12:59:37;26.30;69.20
5415;DHT22;2730;51.512;7.504;2022-07-04T13:02:04;26.50;69.30
5415;DHT22;2730;51.512;7.504;2022-07-04T13:04:31;26.20;68.00
5415;DHT22;2730;51.512;7.504;2022-07-04T13:06:59;26.20;67.80
5415;DHT22;2730;51.512;7.504;2022-07-04T13:09:26;26.40;68.10
5415;DHT22;2730;51.512;7.504;2022-07-04T13:11:54;26.20;66.20
5415;DHT22;2730;51.512;7.504;2022-07-04T13:14:39;26.00;67.60
5415;DHT22;2730;51.512;7.504;2022-07-04T13:17:06;25.80;67.60
5415;DHT22;2730;51.512;7.504;2022-07-04T13:19:32;25.40;67.90
5415;DHT22;2730;51.512;7.504;2022-07-04T13:21:59;25.40;68.60
5415;DHT22;2730;51.512;7.504;2022-07-04T13:24:26;25.90;68.20
5415;DHT22;2730;51.512;7.504;2022-07-04T13:26:54;25.90;68.00
5415;DHT22;2730;51.512;7.504;2022-07-04T13:29:21;25.80;66.70
5415;DHT22;2730;51.512;7.504;2022-07-04T13:31:49;25.70;67.30
5415;DHT22;2730;51.512;7.504;2022-07-04T13:34:16;25.40;69.10
5415;DHT22;2730;51.512;7.504;2022-07-04T13:36:43;25.20;70.30
5415;DHT22;2730;51.512;7.504;2022-07-04T13:39:10;25.40;70.60
5415;DHT22;2730;51.512;7.504;2022-07-04T13:41:37;25.70;70.40
5415;DHT22;2730;51.512;7.504;2022-07-04T13:44:06;25.30;70.20
5415;DHT22;2730;51.512;7.504;2022-07-04T13:46:34;24.90;71.10
5415;DHT22;2730;51.512;7.504;2022-07-04T13:49:02;25.20;72.10
5415;DHT22;2730;51.512;7.504;2022-07-04T13:51:29;25.60;70.70
5415;DHT22;2730;51.512;7.504;2022-07-04T13:53:56;25.70;70.90
5415;DHT22;2730;51.512;7.504;2022-07-04T13:56:23;26.10;69.60
5415;DHT22;2730;51.512;7.504;2022-07-04T13:58:49;26.10;68.70
5415;DHT22;2730;51.512;7.504;2022-07-04T14:01:18;26.00;69.20
5415;DHT22;2730;51.512;7.504;2022-07-04T14:03:45;26.00;68.90
5415;DHT22;2730;51.512;7.504;2022-07-04T14:06:13;26.20;69.00
5415;DHT22;2730;51.512;7.504;2022-07-04T14:08:39;26.40;68.80
5415;DHT22;2730;51.512;7.504;2022-07-04T14:11:06;26.60;68.10
5415;DHT22;2730;51.512;7.504;2022-07-04T14:13:33;26.50;68.20
5415;DHT22;2730;51.512;7.504;2022-07-04T14:16:00;26.60;67.60
5415;DHT22;2730;51.512;7.504;2022-07-04T14:18:28;25.90;67.80
5415;DHT22;2730;51.512;7.504;2022-07-04T14:20:55;25.80;69.10
5415;DHT22;2730;51.512;7.504;2022-07-04T14:23:22;25.40;68.80
5415;DHT22;2730;51.512;7.504;2022-07-04T14:26:03;25.40;69.50
5415;DHT22;2730;51.512;7.504;2022-07-04T14:28:30;25.60;70.40
5415;DHT22;2730;51.512;7.504;2022-07-04T14:30:58;25.90;69.10
5415;DHT22;2730;51.512;7.504;2022-07-04T14:33:25;26.00;69.00
5415;DHT22;2730;51.512;7.504;2022-07-04T14:35:53;25.90;69.30
5415;DHT22;2730;51.512;7.504;2022-07-04T14:38:20;25.70;69.00
5415;DHT22;2730;51.512;7.504;2022-07-04T14:40:47;25.70;70.40
5415;DHT22;2730;51.512;7.504;2022-07-04T14:43:15;25.90;69.70
5415;DHT22;2730;51.512;7.504;2022-07-04T14:45:43;25.70;69.50
5415;DHT22;2730;51.512;7.504;2022-07-04T14:48:10;25.90;68.90
5415;DHT22;2730;51.512;7.504;2022-07-04T14:50:37;26.10;68.70
5415;DHT22;2730;51.512;7.504;2022-07-04T14:53:05;26.20;69.30
5415;DHT22;2730;51.512;7.504;2022-07-04T14:55:32;26.40;69.10
5415;DHT22;2730;51.512;7.504;2022-07-04T14:58:00;26.70;68.80
5415;DHT22;2730;51.512;7.504;2022-07-04T15:00:26;26.70;67.00
5415;DHT22;2730;51.512;7.504;2022-07-04T15:02:53;26.60;67.00
5415;DHT22;2730;51.512;7.504;2022-07-04T15:05:20;26.50;67.10
5415;DHT22;2730;51.512;7.504;2022-07-04T15:07:47;26.20;67.20
5415;DHT22;2730;51.512;7.504;2022-07-04T15:10:15;25.90;68.70
5415;DHT22;2730;51.512;7.504;2022-07-04T15:12:42;25.70;68.90
5415;DHT22;2730;51.512;7.504;2022-07-04T15:15:10;25.60;69.20
5415;DHT22;2730;51.512;7.504;2022-07-04T15:17:37;25.60;69.20
5415;DHT22;2730;51.512;7.504;2022-07-04T15:20:05;25.90;69.50
5415;DHT22;2730;51.512;7.504;2022-07-04T15:22:49;26.00;68.50
5415;DHT22;2730;51.512;7.504;2022-07-04T15:25:35;25.60;69.10
5415;DHT22;2730;51.512;7.504;2022-07-04T15:28:02;25.40;69.70
5415;DHT22;2730;51.512;7.504;2022-07-04T15:30:29;25.40;69.30
5415;DHT22;2730;51.512;7.504;2022-07-04T15:32:56;25.40;70.50
5415;DHT22;2730;51.512;7.504;2022-07-04T15:35:22;25.10;71.00
5415;DHT22;2730;51.512;7.504;2022-07-04T15:37:49;25.10;70.80
5415;DHT22;2730;51.512;7.504;2022-07-04T15:40:16;25.00;71.00
5415;DHT22;2730;51.512;7.504;2022-07-04T15:42:45;25.10;70.70
5415;DHT22;2730;51.512;7.504;2022-07-04T15:45:12;25.20;70.70
5415;DHT22;2730;51.512;7.504;2022-07-04T15:47:38;25.10;70.60
5415;DHT22;2730;51.512;7.504;2022-07-04T15:50:06;24.80;71.70
5415;DHT22;2730;51.512;7.504;2022-07-04T15:52:33;24.80;71.30
5415;DHT22;2730;51.512;7.504;2022-07-04T15:54:59;24.90;71.40
5415;DHT22;2730;51.512;7.504;2022-07-04T15:57:26;25.00;71.60
5415;DHT22;2730;51.512;7.504;2022-07-04T15:59:55;25.20;70.30
5415;DHT22;2730;51.512;7.504;2022-07-04T16:02:21;25.30;70.90
5415;DHT22;2730;51.512;7.504;2022-07-04T16:04:48;25.50;70.20
5415;DHT22;2730;51.512;7.504;2022-07-04T16:07:15;25.60;70.40
5415;DHT22;2730;51.512;7.504;2022-07-04T16:09:43;25.80;70.50
5415;DHT22;2730;51.512;7.504;2022-07-04T16:12:11;25.50;68.90
5415;DHT22;2730;51.512;7.504;2022-07-04T16:14:38;25.40;69.70
5415;DHT22;2730;51.512;7.504;2022-07-04T16:17:06;25.20;70.20
5415;DHT22;2730;51.512;7.504;2022-07-04T16:19:33;25.30;70.90
5415;DHT22;2730;51.512;7.504;2022-07-04T16:21:59;25.20;69.50
5415;DHT22;2730;51.512;7.504;2022-07-04T16:24:26;25.20;71.40
5415;DHT22;2730;51.512;7.504;2022-07-04T16:26:53;25.20;70.70
5415;DHT22;2730;51.512;7.504;2022-07-04T16:29:20;25.20;70.80
5415;DHT22;2730;51.512;7.504;2022-07-04T16:31:47;25.00;70.30
5415;DHT22;2730;51.512;7.504;2022-07-04T16:34:15;25.10;70.90
5415;DHT22;2730;51.512;7.504;2022-07-04T16:36:42;25.00;71.40
5415;DHT22;2730;51.512;7.504;2022-07-04T16:39:09;25.10;71.60
5415;DHT22;2730;51.512;7.504;2022-07-04T16:41:35;25.30;71.50
5415;DHT22;2730;51.512;7.504;2022-07-04T16:44:03;25.30;70.60
5415;DHT22;2730;51.512;7.504;2022-07-04T16:46:30;24.90;71.60
5415;DHT22;2730;51.512;7.504;2022-07-04T16:48:56;25.00;72.20
5415;DHT22;2730;51.512;7.504;2022-07-04T16:51:25;25.00;72.10
5415;DHT22;2730;51.512;7.504;2022-07-04T16:53:52;24.90;72.00
5415;DHT22;2730;51.512;7.504;2022-07-04T16:56:19;24.80;72.40
5415;DHT22;2730;51.512;7.504;2022-07-04T16:58:46;24.80;73.10
5415;DHT22;2730;51.512;7.504;2022-07-04T17:01:12;24.60;72.50
5415;DHT22;2730;51.512;7.504;2022-07-04T17:03:39;24.60;73.40
5415;DHT22;2730;51.512;7.504;2022-07-04T17:06:07;24.50;73.20
5415;DHT22;2730;51.512;7.504;2022-07-04T17:08:35;24.40;73.70
5415;DHT22;2730;51.512;7.504;2022-07-04T17:11:04;24.20;73.90
5415;DHT22;2730;51.512;7.504;2022-07-04T17:13:32;24.10;74.40
5415;DHT22;2730;51.512;7.504;2022-07-04T17:15:59;24.10;74.40
5415;DHT22;2730;51.512;7.504;2022-07-04T17:18:26;24.10;74.70
5415;DHT22;2730;51.512;7.504;2022-07-04T17:20:53;24.10;74.30
5415;DHT22;2730;51.512;7.504;2022-07-04T17:23:20;24.00;74.40
5415;DHT22;2730;51.512;7.504;2022-07-04T17:25:48;23.90;74.80
5415;DHT22;2730;51.512;7.504;2022-07-04T17:28:16;23.80;75.00
5415;DHT22;2730;51.512;7.504;2022-07-04T17:30:44;23.70;75.40
5415;DHT22;2730;51.512;7.504;2022-07-04T17:33:11;23.70;75.90
5415;DHT22;2730;51.512;7.504;2022-07-04T17:35:38;23.90;76.30
5415;DHT22;2730;51.512;7.504;2022-07-04T17:38:05;24.10;76.40
5415;DHT22;2730;51.512;7.504;2022-07-04T17:40:32;24.10;76.70
5415;DHT22;2730;51.512;7.504;2022-07-04T17:43:03;24.20;77.00
5415;DHT22;2730;51.512;7.504;2022-07-04T17:45:29;24.00;77.10
5415;DHT22;2730;51.512;7.504;2022-07-04T17:47:56;24.10;77.30
5415;DHT22;2730;51.512;7.504;2022-07-04T17:50:24;24.20;77.40
5415;DHT22;2730;51.512;7.504;2022-07-04T17:52:51;24.20;77.70
5415;DHT22;2730;51.512;7.504;2022-07-04T17:55:19;24.20;78.50
5415;DHT22;2730;51.512;7.504;2022-07-04T17:57:48;24.00;78.80
5415;DHT22;2730;51.512;7.504;2022-07-04T18:00:16;23.90;79.60
5415;DHT22;2730;51.512;7.504;2022-07-04T18:02:43;23.90;80.00
5415;DHT22;2730;51.512;7.504;2022-07-04T18:05:10;23.80;79.80
5415;DHT22;2730;51.512;7.504;2022-07-04T18:07:37;23.80;80.10
5415;DHT22;2730;51.512;7.504;2022-07-04T18:10:04;23.70;80.60
5415;DHT22;2730;51.512;7.504;2022-07-04T18:12:31;23.70;80.20
5415;DHT22;2730;51.512;7.504;2022-07-04T18:14:58;23.70;80.50
5415;DHT22;2730;51.512;7.504;2022-07-04T18:17:26;23.70;80.60
5415;DHT22;2730;51.512;7.504;2022-07-04T18:19:53;23.70;81.00
5415;DHT22;2730;51.512;7.504;2022-07-04T18:22:19;23.60;81.00
5415;DHT22;2730;51.512;7.504;2022-07-04T18:24:46;23.70;81.40
5415;DHT22;2730;51.512;7.504;2022-07-04T18:27:13;23.70;81.20
5415;DHT22;2730;51.512;7.504;2022-07-04T18:29:40;23.60;81.10
5415;DHT22;2730;51.512;7.504;2022-07-04T18:32:07;23.50;81.40
5415;DHT22;2730;51.512;7.504;2022-07-04T18:34:35;23.40;81.70
5415;DHT22;2730;51.512;7.504;2022-07-04T18:37:02;23.30;82.10
5415;DHT22;2730;51.512;7.504;2022-07-04T18:39:29;23.20;82.30
5415;DHT22;2730;51.512;7.504;2022-07-04T18:41:56;23.20;82.20
5415;DHT22;2730;51.512;7.504;2022-07-04T18:44:40;23.20;82.20
5415;DHT22;2730;51.512;7.504;2022-07-04T18:47:07;23.10;82.60
5415;DHT22;2730;51.512;7.504;2022-07-04T18:49:35;23.00;82.30
5415;DHT22;2730;51.512;7.504;2022-07-04T18:52:04;22.90;82.50
5415;DHT22;2730;51.512;7.504;2022-07-04T18:54:31;22.90;82.90
5415;DHT22;2730;51.512;7.504;2022-07-04T18:56:58;22.80;83.30
5415;DHT22;2730;51.512;7.504;2022-07-04T18:59:25;22.80;83.60
5415;DHT22;2730;51.512;7.504;2022-07-04T19:01:52;22.70;83.80
5415;DHT22;2730;51.512;7.504;2022-07-04T19:04:19;22.60;84.10
5415;DHT22;2730;51.512;7.504;2022-07-04T19:06:47;22.60;84.40
5415;DHT22;2730;51.512;7.504;2022-07-04T19:09:14;22.60;84.70
5415;DHT22;2730;51.512;7.504;2022-07-04T19:11:41;22.50;85.70
5415;DHT22;2730;51.512;7.504;2022-07-04T19:14:07;22.40;85.20
5415;DHT22;2730;51.512;7.504;2022-07-04T19:16:36;22.40;85.30
5415;DHT22;2730;51.512;7.504;2022-07-04T19:19:03;22.40;85.80
5415;DHT22;2730;51.512;7.504;2022-07-04T19:21:30;22.30;85.90
5415;DHT22;2730;51.512;7.504;2022-07-04T19:23:58;22.30;86.20
5415;DHT22;2730;51.512;7.504;2022-07-04T19:26:25;22.20;86.40
5415;DHT22;2730;51.512;7.504;2022-07-04T19:28:52;22.20;86.80
5415;DHT22;2730;51.512;7.504;2022-07-04T19:31:19;22.10;87.00
5415;DHT22;2730;51.512;7.504;2022-07-04T19:33:46;22.00;87.30
5415;DHT22;2730;51.512;7.504;2022-07-04T19:36:13;22.00;87.90
5415;DHT22;2730;51.512;7.504;2022-07-04T19:38:43;22.00;87.90
5415;DHT22;2730;51.512;7.504;2022-07-04T19:41:11;22.00;88.00
5415;DHT22;2730;51.512;7.504;2022-07-04T19:43:38;22.00;88.10
5415;DHT22;2730;51.512;7.504;2022-07-04T19:46:05;22.00;88.30
5415;DHT22;2730;51.512;7.504;2022-07-04T19:48:32;21.90;88.40
5415;DHT22;2730;51.512;7.504;2022-07-04T19:50:59;21.80;88.60
5415;DHT22;2730;51.512;7.504;2022-07-04T19:53:26;21.80;89.00
5415;DHT22;2730;51.512;7.504;2022-07-04T19:55:53;21.70;89.40
5415;DHT22;2730;51.512;7.504;2022-07-04T19:58:21;21.70;89.50
5415;DHT22;2730;51.512;7.504;2022-07-04T20:00:48;21.70;89.40
5415;DHT22;2730;51.512;7.504;2022-07-04T20:03:15;21.70;89.70
5415;DHT22;2730;51.512;7.504;2022-07-04T20:05:42;21.60;89.00
5415;DHT22;2730;51.512;7.504;2022-07-04T20:08:08;21.60;89.20
5415;DHT22;2730;51.512;7.504;2022-07-04T20:10:36;21.60;89.30
5415;DHT22;2730;51.512;7.504;2022-07-04T20:13:03;21.70;89.30
5415;DHT22;2730;51.512;7.504;2022-07-04T20:15:31;21.60;89.40
5415;DHT22;2730;51.512;7.504;2022-07-04T20:17:58;21.60;89.40
5415;DHT22;2730;51.512;7.504;2022-07-04T20:20:25;21.50;89.60
5415;DHT22;2730;51.512;7.504;2022-07-04T20:22:52;21.50;89.80
5415;DHT22;2730;51.512;7.504;2022-07-04T20:25:19;21.40;90.00
5415;DHT22;2730;51.512;7.504;2022-07-04T20:27:46;21.30;90.10
5415;DHT22;2730;51.512;7.504;2022-07-04T20:30:15;21.30;90.20
5415;DHT22;2730;51.512;7.504;2022-07-04T20:32:43;21.20;90.40
5415;DHT22;2730;51.512;7.504;2022-07-04T20:35:12;21.20;90.50
5415;DHT22;2730;51.512;7.504;2022-07-04T20:37:40;21.10;90.70
5415;DHT22;2730;51.512;7.504;2022-07-04T20:40:09;21.00;91.10
5415;DHT22;2730;51.512;7.504;2022-07-04T20:42:37;20.90;90.80
5415;DHT22;2730;51.512;7.504;2022-07-04T20:45:06;20.90;90.90
5415;DHT22;2730;51.512;7.504;2022-07-04T20:47:33;20.80;91.00
5415;DHT22;2730;51.512;7.504;2022-07-04T20:50:03;20.70;91.10
5415;DHT22;2730;51.512;7.504;2022-07-04T20:52:31;20.70;91.20
5415;DHT22;2730;51.512;7.504;2022-07-04T20:54:58;20.60;91.30
5415;DHT22;2730;51.512;7.504;2022-07-04T20:57:25;20.60;91.30
5415;DHT22;2730;51.512;7.504;2022-07-04T20:59:53;20.50;91.40
5415;DHT22;2730;51.512;7.504;2022-07-04T21:02:19;20.50;91.40
5415;DHT22;2730;51.512;7.504;2022-07-04T21:04:47;20.40;91.50
5415;DHT22;2730;51.512;7.504;2022-07-04T21:07:15;20.30;91.70
5415;DHT22;2730;51.512;7.504;2022-07-04T21:09:42;20.30;91.80
5415;DHT22;2730;51.512;7.504;2022-07-04T21:12:09;20.20;91.90
5415;DHT22;2730;51.512;7.504;2022-07-04T21:14:36;20.20;92.00